createdAt,value
2019-04-03T00:00:04.415Z,57.40
2019-04-03T00:00:35.143Z,57.50
2019-04-03T00:01:06.576Z,57.40
2019-04-03T00:01:37.861Z,57.40
2019-04-03T00:02:09.205Z,57.40
2019-04-03T00:02:40.451Z,57.80
2019-04-03T00:03:11.966Z,57.40
2019-04-03T00:03:43.607Z,57.40
2019-04-03T00:04:14.811Z,57.40
2019-04-03T00:04:45.986Z,57.40
2019-04-03T00:05:17.166Z,57.40
2019-04-03T00:05:48.752Z,57.40
2019-04-03T00:06:20.028Z,57.40
2019-04-03T00:06:51.203Z,56.80
2019-04-03T00:07:22.371Z,57.40
2019-04-03T00:07:53.550Z,57.40
2019-04-03T00:08:24.727Z,57.40
2019-04-03T00:08:55.985Z,57.50
2019-04-03T00:09:27.223Z,57.40
2019-04-03T00:09:58.399Z,57.40
2019-04-03T00:10:29.932Z,57.40
2019-04-03T00:11:01.574Z,57.40
2019-04-03T00:11:32.776Z,57.40
2019-04-03T00:12:03.952Z,57.40
2019-04-03T00:12:35.128Z,57.20
2019-04-03T00:13:06.308Z,57.40
2019-04-03T00:13:37.478Z,57.40
2019-04-03T00:14:08.988Z,57.40
2019-04-03T00:14:42.227Z,57.50
2019-04-03T00:15:14.232Z,57.50
2019-04-03T00:15:45.883Z,57.60
2019-04-03T00:16:17.228Z,57.50
2019-04-03T00:16:48.719Z,57.60
2019-04-03T00:17:19.893Z,57.50
2019-04-03T00:17:51.189Z,57.50
2019-04-03T00:18:22.371Z,57.50
2019-04-03T00:18:53.659Z,57.50
2019-04-03T00:19:25.018Z,57.50
2019-04-03T00:19:56.189Z,57.60
2019-04-03T00:20:27.426Z,57.60
2019-04-03T00:20:58.668Z,57.60
2019-04-03T00:21:30.119Z,57.60
2019-04-03T00:22:01.290Z,57.60
2019-04-03T00:22:32.473Z,57.60
2019-04-03T00:23:03.811Z,57.50
2019-04-03T00:23:35.050Z,57.50
2019-04-03T00:24:06.258Z,57.50
2019-04-03T00:24:37.715Z,57.50
2019-04-03T00:25:09.386Z,58.20
2019-04-03T00:25:40.594Z,57.60
2019-04-03T00:26:11.880Z,57.50
2019-04-03T00:26:43.234Z,57.50
2019-04-03T00:27:14.411Z,57.50
2019-04-03T00:27:45.931Z,57.50
2019-04-03T00:28:17.175Z,57.50
2019-04-03T00:28:48.359Z,57.50
2019-04-03T00:29:22.037Z,57.50
2019-04-03T00:29:52.921Z,57.50
2019-04-03T00:30:24.133Z,57.40
2019-04-03T00:30:55.580Z,57.50
2019-04-03T00:31:27.001Z,57.40
2019-04-03T00:31:58.179Z,57.50
2019-04-03T00:32:29.366Z,57.50
2019-04-03T00:33:00.535Z,57.50
2019-04-03T00:33:32.170Z,57.60
2019-04-03T00:34:03.487Z,57.60
2019-04-03T00:34:35.046Z,57.60
2019-04-03T00:35:06.391Z,57.60
2019-04-03T00:35:37.581Z,57.60
2019-04-03T00:36:08.879Z,57.50
2019-04-03T00:36:40.237Z,57.60
2019-04-03T00:37:11.576Z,57.60
2019-04-03T00:37:42.752Z,57.60
2019-04-03T00:38:13.928Z,57.60
2019-04-03T00:38:45.489Z,57.60
2019-04-03T00:39:16.667Z,57.60
2019-04-03T00:39:47.847Z,57.60
2019-04-03T00:40:19.052Z,57.60
2019-04-03T00:40:50.622Z,57.60
2019-04-03T00:41:22.708Z,57.50
2019-04-03T00:41:55.139Z,57.60
2019-04-03T00:42:26.673Z,57.60
2019-04-03T00:42:57.860Z,57.50
2019-04-03T00:43:29.165Z,57.50
2019-04-03T00:44:00.687Z,57.50
2019-04-03T00:44:31.866Z,57.50
2019-04-03T00:45:03.118Z,57.50
2019-04-03T00:45:34.294Z,57.50
2019-04-03T00:46:05.498Z,57.60
2019-04-03T00:46:36.704Z,57.50
2019-04-03T00:47:08.060Z,57.60
2019-04-03T00:47:39.342Z,57.50
2019-04-03T00:48:10.950Z,57.60
2019-04-03T00:48:42.130Z,57.50
2019-04-03T00:49:13.334Z,57.50
2019-04-03T00:49:44.502Z,57.50
2019-04-03T00:50:15.684Z,57.50
2019-04-03T00:50:46.859Z,57.50
2019-04-03T00:51:18.060Z,57.50
2019-04-03T00:51:49.284Z,57.50
2019-04-03T00:52:20.475Z,57.50
2019-04-03T00:52:51.659Z,57.50
2019-04-03T00:53:22.861Z,57.60
2019-04-03T00:53:54.096Z,57.60
2019-04-03T00:54:26.458Z,57.60
2019-04-03T00:54:58.119Z,57.60
2019-04-03T00:55:29.359Z,57.70
2019-04-03T00:56:00.537Z,57.60
2019-04-03T00:56:31.736Z,57.60
2019-04-03T00:57:02.903Z,57.60
2019-04-03T00:57:35.600Z,57.60
2019-04-03T00:58:06.808Z,57.60
2019-04-03T00:58:38.052Z,57.60
2019-04-03T00:59:09.260Z,57.60
2019-04-03T00:59:40.832Z,57.60
2019-04-03T01:00:12.223Z,57.60
2019-04-03T01:00:43.437Z,57.60
2019-04-03T01:01:14.616Z,57.60
2019-04-03T01:01:45.811Z,57.50
2019-04-03T01:02:17.400Z,57.50
2019-04-03T01:02:48.690Z,57.50
2019-04-03T01:03:19.870Z,57.50
2019-04-03T01:03:51.060Z,57.50
2019-04-03T01:04:22.375Z,57.50
2019-04-03T01:04:53.698Z,57.50
2019-04-03T01:05:24.934Z,57.60
2019-04-03T01:05:56.694Z,57.50
2019-04-03T01:06:29.758Z,57.50
2019-04-03T01:07:00.946Z,57.50
2019-04-03T01:07:32.116Z,57.50
2019-04-03T01:08:03.309Z,57.50
2019-04-03T01:08:34.963Z,57.50
2019-04-03T01:09:06.251Z,57.50
2019-04-03T01:09:37.426Z,58.00
2019-04-03T01:10:08.609Z,57.50
2019-04-03T01:10:39.799Z,57.50
2019-04-03T01:11:11.312Z,57.50
2019-04-03T01:11:42.511Z,57.50
2019-04-03T01:12:13.684Z,57.50
2019-04-03T01:12:44.929Z,57.50
2019-04-03T01:13:16.115Z,57.50
2019-04-03T01:13:47.292Z,57.60
2019-04-03T01:14:18.867Z,58.30
2019-04-03T01:14:50.057Z,57.60
2019-04-03T01:15:21.581Z,58.30
2019-04-03T01:15:53.148Z,57.60
2019-04-03T01:16:24.324Z,57.60
2019-04-03T01:16:55.495Z,57.60
2019-04-03T01:17:26.697Z,57.70
2019-04-03T01:17:57.860Z,57.60
2019-04-03T01:18:29.393Z,57.60
2019-04-03T01:19:00.924Z,57.60
2019-04-03T01:19:32.103Z,57.60
2019-04-03T01:20:06.052Z,57.60
2019-04-03T01:20:37.751Z,57.60
2019-04-03T01:21:08.980Z,57.70
2019-04-03T01:21:40.165Z,57.60
2019-04-03T01:22:11.349Z,57.60
2019-04-03T01:22:42.837Z,57.60
2019-04-03T01:23:14.014Z,57.60
2019-04-03T01:23:45.213Z,57.60
2019-04-03T01:24:16.835Z,57.60
2019-04-03T01:24:48.118Z,57.60
2019-04-03T01:25:19.610Z,57.60
2019-04-03T01:25:51.146Z,57.60
2019-04-03T01:26:22.476Z,58.20
2019-04-03T01:26:53.688Z,57.60
2019-04-03T01:27:24.875Z,57.60
2019-04-03T01:27:56.051Z,57.60
2019-04-03T01:28:27.307Z,57.60
2019-04-03T01:28:58.554Z,57.60
2019-04-03T01:29:29.738Z,57.60
2019-04-03T01:30:00.954Z,57.60
2019-04-03T01:30:32.130Z,57.50
2019-04-03T01:31:03.692Z,57.60
2019-04-03T01:31:35.018Z,57.60
2019-04-03T01:32:06.548Z,57.60
2019-04-03T01:32:37.800Z,57.60
2019-04-03T01:33:09.026Z,57.60
2019-04-03T01:33:40.231Z,57.60
2019-04-03T01:34:11.411Z,57.60
2019-04-03T01:34:42.680Z,57.60
2019-04-03T01:35:13.963Z,57.60
2019-04-03T01:35:47.124Z,57.60
2019-04-03T01:36:18.242Z,57.60
2019-04-03T01:36:49.494Z,57.60
2019-04-03T01:37:20.664Z,57.60
2019-04-03T01:37:51.934Z,57.60
2019-04-03T01:38:23.246Z,57.60
2019-04-03T01:38:54.500Z,57.60
2019-04-03T01:39:25.751Z,57.60
2019-04-03T01:39:57.033Z,57.70
2019-04-03T01:40:28.290Z,57.60
2019-04-03T01:40:59.565Z,57.60
2019-04-03T01:41:30.741Z,57.60
2019-04-03T01:42:02.207Z,57.60
2019-04-03T01:42:34.573Z,57.70
2019-04-03T01:43:05.821Z,57.70
2019-04-03T01:43:37.029Z,57.70
2019-04-03T01:44:08.219Z,57.70
2019-04-03T01:44:39.402Z,57.70
2019-04-03T01:45:10.573Z,57.70
2019-04-03T01:45:41.786Z,57.70
2019-04-03T01:46:12.967Z,57.70
2019-04-03T01:46:44.141Z,57.70
2019-04-03T01:47:15.322Z,57.70
2019-04-03T01:47:46.615Z,57.70
2019-04-03T01:48:17.906Z,57.60
2019-04-03T01:48:49.219Z,57.70
2019-04-03T01:49:20.422Z,57.70
2019-04-03T01:49:51.603Z,57.60
2019-04-03T01:50:22.767Z,57.60
2019-04-03T01:50:53.959Z,57.70
2019-04-03T01:51:25.129Z,57.60
2019-04-03T01:51:56.412Z,57.60
2019-04-03T01:52:27.650Z,57.60
2019-04-03T01:52:58.830Z,57.60
2019-04-03T01:53:30.873Z,57.60
2019-04-03T01:54:03.635Z,57.60
2019-04-03T01:54:34.919Z,57.70
2019-04-03T01:55:06.521Z,57.60
2019-04-03T01:55:37.687Z,57.70
2019-04-03T01:56:08.863Z,57.70
2019-04-03T01:56:40.098Z,57.70
2019-04-03T01:57:11.361Z,57.70
2019-04-03T01:57:42.684Z,57.70
2019-04-03T01:58:14.314Z,57.70
2019-04-03T01:58:45.565Z,57.70
2019-04-03T01:59:16.752Z,57.70
2019-04-03T01:59:47.920Z,57.70
2019-04-03T02:00:19.204Z,57.70
2019-04-03T02:00:50.474Z,57.70
2019-04-03T02:01:22.156Z,58.20
2019-04-03T02:01:53.593Z,57.60
2019-04-03T02:02:24.774Z,57.70
2019-04-03T02:02:55.969Z,57.60
2019-04-03T02:03:27.296Z,57.70
2019-04-03T02:03:58.602Z,57.60
2019-04-03T02:04:29.777Z,57.80
2019-04-03T02:05:01.293Z,57.60
2019-04-03T02:05:32.485Z,57.60
2019-04-03T02:06:03.694Z,57.60
2019-04-03T02:06:35.155Z,57.60
2019-04-03T02:07:06.334Z,57.70
2019-04-03T02:07:37.514Z,57.60
2019-04-03T02:08:08.685Z,57.60
2019-04-03T02:08:40.322Z,57.60
2019-04-03T02:09:11.663Z,57.60
2019-04-03T02:09:42.847Z,58.20
2019-04-03T02:10:15.977Z,57.60
2019-04-03T02:10:48.926Z,57.70
2019-04-03T02:11:20.367Z,57.70
2019-04-03T02:11:51.743Z,57.60
2019-04-03T02:12:22.917Z,57.60
2019-04-03T02:12:54.134Z,57.60
2019-04-03T02:13:25.334Z,57.70
2019-04-03T02:13:56.629Z,57.70
2019-04-03T02:14:28.343Z,57.70
2019-04-03T02:14:59.531Z,57.80
2019-04-03T02:15:30.709Z,57.70
2019-04-03T02:16:01.881Z,57.70
2019-04-03T02:16:33.075Z,57.80
2019-04-03T02:17:04.255Z,57.70
2019-04-03T02:17:35.431Z,57.70
2019-04-03T02:18:06.612Z,57.70
2019-04-03T02:18:37.788Z,57.70
2019-04-03T02:19:08.963Z,57.70
2019-04-03T02:19:40.597Z,57.60
2019-04-03T02:20:11.822Z,57.70
2019-04-03T02:20:43.134Z,57.70
2019-04-03T02:21:14.410Z,57.70
2019-04-03T02:21:45.588Z,57.70
2019-04-03T02:22:16.772Z,57.60
2019-04-03T02:22:47.945Z,57.70
2019-04-03T02:23:19.125Z,57.60
2019-04-03T02:23:50.301Z,57.70
2019-04-03T02:24:21.511Z,57.60
2019-04-03T02:24:52.737Z,57.70
2019-04-03T02:25:23.915Z,57.60
2019-04-03T02:25:55.162Z,57.60
2019-04-03T02:26:26.400Z,57.60
2019-04-03T02:26:57.634Z,57.60
2019-04-03T02:27:28.968Z,57.70
2019-04-03T02:28:00.215Z,57.60
2019-04-03T02:28:34.201Z,57.60
2019-04-03T02:29:05.096Z,57.70
2019-04-03T02:29:37.973Z,57.60
2019-04-03T02:30:12.978Z,57.60
2019-04-03T02:30:46.119Z,57.70
2019-04-03T02:31:19.101Z,57.70
2019-04-03T02:31:51.678Z,57.70
2019-04-03T02:32:24.140Z,57.70
2019-04-03T02:32:56.335Z,57.80
2019-04-03T02:33:28.979Z,57.80
2019-04-03T02:34:02.218Z,57.80
2019-04-03T02:34:35.456Z,57.80
2019-04-03T02:35:07.742Z,58.40
2019-04-03T02:35:40.477Z,57.80
2019-04-03T02:36:13.119Z,57.80
2019-04-03T02:36:45.462Z,57.80
2019-04-03T02:37:17.747Z,57.80
2019-04-03T02:37:50.640Z,57.60
2019-04-03T02:38:23.438Z,57.80
2019-04-03T02:38:55.119Z,57.70
2019-04-03T02:39:27.593Z,57.80
2019-04-03T02:40:00.494Z,58.30
2019-04-03T02:40:33.071Z,57.70
2019-04-03T02:41:05.177Z,57.70
2019-04-03T02:41:37.443Z,57.70
2019-04-03T02:42:09.853Z,58.40
2019-04-03T02:42:42.120Z,57.80
2019-04-03T02:43:15.096Z,57.70
2019-04-03T02:43:47.420Z,57.70
2019-04-03T02:44:20.067Z,57.70
2019-04-03T02:44:51.910Z,57.70
2019-04-03T02:45:24.294Z,57.70
2019-04-03T02:45:56.902Z,57.70
2019-04-03T02:46:28.931Z,57.70
2019-04-03T02:47:01.472Z,57.60
2019-04-03T02:47:33.966Z,57.70
2019-04-03T02:48:06.513Z,57.70
2019-04-03T02:48:38.561Z,57.70
2019-04-03T02:49:10.952Z,57.70
2019-04-03T02:49:43.617Z,57.70
2019-04-03T02:50:15.424Z,57.70
2019-04-03T02:50:47.986Z,57.70
2019-04-03T02:51:20.508Z,57.70
2019-04-03T02:51:53.415Z,57.70
2019-04-03T02:52:25.646Z,57.70
2019-04-03T02:52:58.784Z,57.70
2019-04-03T02:53:31.120Z,57.80
2019-04-03T02:54:03.231Z,57.80
2019-04-03T02:54:35.741Z,57.70
2019-04-03T02:55:08.106Z,57.70
2019-04-03T02:55:40.728Z,57.70
2019-04-03T02:56:13.501Z,57.80
2019-04-03T02:56:46.058Z,57.80
2019-04-03T02:57:18.386Z,57.80
2019-04-03T02:57:50.307Z,57.80
2019-04-03T02:58:22.740Z,57.80
2019-04-03T02:58:55.184Z,57.80
2019-04-03T02:59:27.000Z,57.80
2019-04-03T03:00:00.079Z,57.80
2019-04-03T03:00:33.206Z,57.90
2019-04-03T03:01:06.895Z,57.80
2019-04-03T03:01:39.788Z,57.90
2019-04-03T03:02:12.566Z,57.80
2019-04-03T03:02:45.394Z,57.80
2019-04-03T03:03:17.236Z,57.90
2019-04-03T03:03:49.992Z,57.80
2019-04-03T03:04:22.396Z,57.80
2019-04-03T03:04:55.137Z,57.80
2019-04-03T03:05:28.198Z,57.70
2019-04-03T03:06:00.954Z,57.80
2019-04-03T03:06:33.717Z,57.80
2019-04-03T03:07:05.538Z,57.80
2019-04-03T03:07:37.383Z,57.70
2019-04-03T03:08:09.954Z,57.70
2019-04-03T03:08:42.592Z,57.80
2019-04-03T03:09:14.257Z,57.80
2019-04-03T03:09:47.149Z,57.90
2019-04-03T03:10:20.135Z,57.70
2019-04-03T03:10:52.948Z,58.40
2019-04-03T03:11:25.152Z,57.70
2019-04-03T03:11:57.131Z,57.70
2019-04-03T03:12:28.837Z,57.70
2019-04-03T03:13:01.757Z,57.80
2019-04-03T03:13:34.591Z,57.90
2019-04-03T03:14:07.205Z,57.90
2019-04-03T03:14:39.782Z,57.90
2019-04-03T03:15:12.681Z,58.00
2019-04-03T03:15:45.084Z,57.90
2019-04-03T03:16:18.191Z,57.90
2019-04-03T03:16:50.665Z,57.90
2019-04-03T03:17:23.578Z,57.90
2019-04-03T03:17:56.090Z,57.90
2019-04-03T03:18:28.327Z,57.80
2019-04-03T03:19:01.064Z,57.80
2019-04-03T03:19:33.806Z,57.80
2019-04-03T03:20:07.078Z,57.80
2019-04-03T03:20:39.502Z,57.80
2019-04-03T03:21:13.118Z,57.70
2019-04-03T03:21:45.408Z,57.80
2019-04-03T03:22:18.101Z,57.80
2019-04-03T03:22:50.741Z,57.80
2019-04-03T03:23:23.339Z,57.80
2019-04-03T03:23:56.095Z,57.70
2019-04-03T03:24:29.416Z,57.70
2019-04-03T03:25:01.623Z,57.80
2019-04-03T03:25:34.312Z,57.70
2019-04-03T03:26:06.174Z,57.70
2019-04-03T03:26:37.853Z,57.80
2019-04-03T03:27:09.931Z,57.70
2019-04-03T03:27:42.543Z,57.80
2019-04-03T03:28:14.777Z,57.70
2019-04-03T03:28:47.436Z,57.80
2019-04-03T03:29:24.103Z,57.80
2019-04-03T03:29:52.149Z,57.80
2019-04-03T03:30:41.196Z,57.80
2019-04-03T03:31:02.601Z,57.80
2019-04-03T03:31:59.433Z,57.80
2019-04-03T03:32:12.769Z,57.90
2019-04-03T03:32:36.684Z,57.80
2019-04-03T03:33:26.989Z,57.90
2019-04-03T03:33:41.774Z,57.80
2019-04-03T03:34:13.627Z,57.80
2019-04-03T03:34:55.127Z,57.90
2019-04-03T03:35:27.202Z,58.00
2019-04-03T03:35:51.892Z,57.90
2019-04-03T03:36:26.166Z,57.90
2019-04-03T03:37:00.163Z,57.90
2019-04-03T03:37:33.127Z,57.90
2019-04-03T03:38:06.317Z,57.90
2019-04-03T03:38:38.201Z,57.90
2019-04-03T03:39:11.013Z,57.90
2019-04-03T03:39:43.418Z,57.90
2019-04-03T03:40:16.181Z,57.90
2019-04-03T03:40:49.023Z,57.80
2019-04-03T03:41:23.169Z,57.80
2019-04-03T03:41:56.151Z,57.90
2019-04-03T03:42:30.097Z,57.80
2019-04-03T03:42:58.833Z,57.80
2019-04-03T03:43:30.017Z,57.90
2019-04-03T03:44:01.214Z,57.80
2019-04-03T03:44:32.591Z,57.80
2019-04-03T03:45:03.856Z,57.90
2019-04-03T03:45:35.034Z,57.80
2019-04-03T03:46:06.222Z,57.80
2019-04-03T03:46:37.702Z,57.80
2019-04-03T03:47:09.215Z,57.80
2019-04-03T03:47:40.459Z,57.80
2019-04-03T03:48:11.955Z,57.80
2019-04-03T03:48:44.801Z,57.80
2019-04-03T03:49:17.926Z,57.80
2019-04-03T03:49:50.717Z,57.80
2019-04-03T03:50:23.942Z,57.90
2019-04-03T03:50:57.270Z,57.80
2019-04-03T03:51:31.097Z,57.80
2019-04-03T03:52:04.002Z,57.90
2019-04-03T03:52:36.805Z,58.00
2019-04-03T03:53:10.229Z,58.00
2019-04-03T03:53:43.947Z,58.60
2019-04-03T03:54:16.867Z,58.00
2019-04-03T03:54:49.805Z,58.00
2019-04-03T03:55:22.870Z,58.00
2019-04-03T03:55:52.161Z,58.00
2019-04-03T03:56:23.400Z,58.00
2019-04-03T03:56:54.767Z,58.00
2019-04-03T03:57:26.088Z,58.00
2019-04-03T03:57:57.676Z,58.00
2019-04-03T03:58:29.277Z,58.00
2019-04-03T03:59:00.848Z,58.00
2019-04-03T03:59:32.220Z,58.00
2019-04-03T04:00:03.420Z,58.00
2019-04-03T04:00:34.657Z,58.00
2019-04-03T04:01:05.841Z,58.00
2019-04-03T04:01:37.214Z,57.90
2019-04-03T04:02:08.404Z,57.90
2019-04-03T04:02:43.161Z,57.90
2019-04-03T04:03:12.486Z,57.90
2019-04-03T04:03:43.681Z,57.90
2019-04-03T04:04:15.666Z,57.90
2019-04-03T04:04:48.784Z,57.90
2019-04-03T04:05:22.190Z,57.80
2019-04-03T04:05:55.359Z,57.80
2019-04-03T04:06:29.363Z,57.80
2019-04-03T04:07:02.177Z,57.90
2019-04-03T04:07:35.908Z,57.80
2019-04-03T04:08:09.227Z,57.80
2019-04-03T04:08:37.749Z,57.80
2019-04-03T04:09:09.295Z,57.90
2019-04-03T04:09:40.605Z,57.90
2019-04-03T04:10:11.778Z,57.80
2019-04-03T04:10:42.988Z,57.90
2019-04-03T04:11:14.284Z,57.90
2019-04-03T04:11:45.591Z,57.90
2019-04-03T04:12:16.801Z,57.90
2019-04-03T04:12:47.980Z,57.90
2019-04-03T04:13:19.164Z,58.50
2019-04-03T04:13:50.449Z,57.90
2019-04-03T04:14:23.348Z,57.90
2019-04-03T04:14:56.864Z,58.60
2019-04-03T04:15:29.942Z,57.90
2019-04-03T04:16:04.178Z,57.90
2019-04-03T04:16:36.997Z,58.00
2019-04-03T04:17:09.598Z,57.90
2019-04-03T04:17:39.435Z,57.90
2019-04-03T04:18:13.794Z,57.90
2019-04-03T04:18:43.548Z,57.90
2019-04-03T04:19:15.099Z,57.80
2019-04-03T04:19:46.286Z,57.90
2019-04-03T04:20:17.673Z,57.90
2019-04-03T04:20:49.002Z,57.80
2019-04-03T04:21:20.167Z,57.80
2019-04-03T04:21:51.344Z,57.80
2019-04-03T04:22:26.331Z,57.80
2019-04-03T04:22:55.645Z,57.90
2019-04-03T04:23:27.262Z,57.80
2019-04-03T04:23:58.544Z,57.80
2019-04-03T04:24:29.724Z,57.80
2019-04-03T04:25:00.904Z,57.90
2019-04-03T04:25:32.139Z,57.90
2019-04-03T04:26:03.352Z,57.90
2019-04-03T04:26:34.570Z,57.80
2019-04-03T04:27:05.798Z,57.90
2019-04-03T04:27:38.813Z,57.90
2019-04-03T04:28:10.006Z,57.90
2019-04-03T04:28:41.257Z,57.90
2019-04-03T04:29:12.806Z,57.90
2019-04-03T04:29:44.369Z,57.90
2019-04-03T04:30:15.555Z,57.90
2019-04-03T04:30:47.105Z,57.80
2019-04-03T04:31:18.465Z,58.50
2019-04-03T04:31:49.629Z,57.90
2019-04-03T04:32:20.806Z,57.90
2019-04-03T04:32:52.120Z,57.90
2019-04-03T04:33:23.422Z,58.00
2019-04-03T04:33:54.602Z,58.00
2019-04-03T04:34:26.078Z,58.00
2019-04-03T04:34:57.334Z,58.10
2019-04-03T04:35:28.537Z,58.00
2019-04-03T04:35:59.766Z,58.00
2019-04-03T04:36:30.954Z,58.00
2019-04-03T04:37:03.065Z,58.00
2019-04-03T04:37:34.434Z,58.00
2019-04-03T04:38:05.608Z,58.00
2019-04-03T04:38:36.806Z,58.00
2019-04-03T04:39:08.028Z,58.00
2019-04-03T04:39:39.200Z,58.00
2019-04-03T04:40:10.438Z,58.00
2019-04-03T04:40:42.078Z,57.90
2019-04-03T04:41:13.252Z,57.90
2019-04-03T04:41:44.427Z,57.90
2019-04-03T04:42:15.688Z,57.90
2019-04-03T04:42:46.895Z,57.90
2019-04-03T04:43:18.071Z,57.90
2019-04-03T04:43:49.280Z,57.90
2019-04-03T04:44:20.796Z,57.90
2019-04-03T04:44:52.002Z,57.90
2019-04-03T04:45:23.316Z,57.90
2019-04-03T04:45:54.648Z,57.90
2019-04-03T04:46:25.845Z,57.90
2019-04-03T04:46:57.159Z,57.90
2019-04-03T04:47:28.367Z,57.90
2019-04-03T04:47:59.596Z,57.90
2019-04-03T04:48:30.901Z,57.90
2019-04-03T04:49:02.237Z,57.90
2019-04-03T04:49:33.426Z,58.00
2019-04-03T04:50:04.626Z,57.90
2019-04-03T04:50:35.861Z,58.00
2019-04-03T04:51:07.181Z,58.00
2019-04-03T04:51:38.768Z,57.90
2019-04-03T04:52:09.949Z,58.00
2019-04-03T04:52:41.213Z,58.00
2019-04-03T04:53:12.385Z,58.00
2019-04-03T04:53:43.907Z,58.10
2019-04-03T04:54:15.294Z,58.00
2019-04-03T04:54:46.883Z,58.00
2019-04-03T04:55:18.427Z,58.00
2019-04-03T04:55:49.737Z,57.90
2019-04-03T04:56:20.979Z,58.00
2019-04-03T04:56:52.191Z,57.90
2019-04-03T04:57:23.694Z,57.90
2019-04-03T04:57:54.938Z,58.00
2019-04-03T04:58:26.154Z,58.00
2019-04-03T04:58:57.434Z,57.90
2019-04-03T04:59:28.612Z,57.90
2019-04-03T04:59:59.790Z,58.00
2019-04-03T05:00:30.983Z,57.80
2019-04-03T05:01:02.379Z,58.00
2019-04-03T05:01:33.663Z,57.90
2019-04-03T05:02:04.847Z,57.90
2019-04-03T05:02:36.023Z,57.90
2019-04-03T05:03:07.235Z,57.90
2019-04-03T05:03:38.450Z,57.80
2019-04-03T05:04:09.686Z,57.80
2019-04-03T05:04:40.904Z,57.80
2019-04-03T05:05:12.079Z,57.80
2019-04-03T05:05:43.564Z,57.80
2019-04-03T05:06:14.935Z,57.80
2019-04-03T05:06:46.111Z,57.90
2019-04-03T05:07:17.445Z,57.80
2019-04-03T05:07:48.739Z,58.60
2019-04-03T05:08:19.916Z,57.90
2019-04-03T05:08:51.478Z,57.80
2019-04-03T05:09:22.738Z,57.90
2019-04-03T05:09:53.999Z,57.80
2019-04-03T05:10:25.306Z,57.80
2019-04-03T05:10:56.649Z,57.80
2019-04-03T05:11:28.269Z,58.30
2019-04-03T05:11:59.441Z,57.80
2019-04-03T05:12:30.785Z,57.80
2019-04-03T05:13:02.133Z,57.90
2019-04-03T05:13:33.602Z,58.30
2019-04-03T05:14:05.134Z,58.00
2019-04-03T05:14:36.483Z,57.90
2019-04-03T05:15:07.921Z,58.00
2019-04-03T05:15:39.101Z,57.90
2019-04-03T05:16:10.579Z,57.90
2019-04-03T05:16:41.777Z,57.90
2019-04-03T05:17:13.054Z,58.00
2019-04-03T05:17:44.895Z,57.90
2019-04-03T05:18:16.106Z,58.00
2019-04-03T05:18:47.306Z,58.00
2019-04-03T05:19:19.494Z,58.00
2019-04-03T05:19:51.151Z,58.00
2019-04-03T05:20:22.327Z,58.00
2019-04-03T05:20:53.514Z,58.00
2019-04-03T05:21:25.380Z,58.00
2019-04-03T05:21:57.002Z,57.90
2019-04-03T05:22:28.368Z,58.00
2019-04-03T05:22:59.635Z,57.90
2019-04-03T05:23:30.855Z,57.90
2019-04-03T05:24:11.441Z,57.90
2019-04-03T05:24:35.451Z,57.90
2019-04-03T05:25:06.921Z,58.00
2019-04-03T05:25:38.095Z,57.90
2019-04-03T05:26:09.304Z,57.90
2019-04-03T05:26:40.748Z,58.00
2019-04-03T05:27:12.480Z,58.50
2019-04-03T05:27:44.032Z,58.00
2019-04-03T05:28:15.676Z,58.00
2019-04-03T05:28:55.638Z,57.90
2019-04-03T05:29:20.085Z,58.00
2019-04-03T05:29:51.358Z,57.90
2019-04-03T05:30:22.644Z,57.90
2019-04-03T05:30:53.829Z,57.90
2019-04-03T05:31:25.000Z,57.90
2019-04-03T05:31:56.188Z,57.90
2019-04-03T05:32:27.389Z,57.90
2019-04-03T05:32:58.570Z,57.80
2019-04-03T05:33:29.748Z,57.90
2019-04-03T05:34:01.215Z,57.90
2019-04-03T05:34:32.543Z,57.80
2019-04-03T05:35:04.125Z,58.50
2019-04-03T05:35:37.505Z,57.80
2019-04-03T05:36:08.246Z,57.90
2019-04-03T05:36:39.421Z,57.80
2019-04-03T05:37:11.663Z,57.90
2019-04-03T05:37:43.615Z,57.80
2019-04-03T05:38:15.235Z,57.80
2019-04-03T05:38:46.620Z,57.80
2019-04-03T05:39:17.847Z,57.80
2019-04-03T05:39:49.059Z,57.90
2019-04-03T05:40:20.570Z,57.80
2019-04-03T05:40:51.746Z,57.80
2019-04-03T05:41:23.451Z,57.80
2019-04-03T05:41:54.636Z,57.80
2019-04-03T05:42:26.994Z,57.80
2019-04-03T05:43:00.149Z,57.80
2019-04-03T05:43:31.592Z,57.80
2019-04-03T05:44:03.319Z,57.80
2019-04-03T05:44:34.575Z,57.80
2019-04-03T05:45:05.897Z,57.80
2019-04-03T05:45:37.607Z,57.80
2019-04-03T05:46:08.926Z,57.80
2019-04-03T05:46:40.687Z,57.80
2019-04-03T05:47:11.869Z,57.90
2019-04-03T05:47:43.080Z,57.80
2019-04-03T05:48:17.592Z,57.80
2019-04-03T05:48:47.995Z,57.80
2019-04-03T05:49:19.811Z,57.80
2019-04-03T05:49:53.811Z,57.80
2019-04-03T05:50:25.726Z,57.80
2019-04-03T05:50:57.943Z,58.50
2019-04-03T05:51:30.345Z,57.80
2019-04-03T05:52:03.534Z,57.80
2019-04-03T05:52:35.148Z,57.80
2019-04-03T05:53:06.989Z,57.80
2019-04-03T05:53:38.225Z,57.90
2019-04-03T05:54:09.822Z,58.00
2019-04-03T05:54:43.916Z,58.00
2019-04-03T05:55:13.900Z,58.00
2019-04-03T05:55:45.081Z,58.00
2019-04-03T05:56:16.309Z,58.10
2019-04-03T05:56:47.827Z,57.90
2019-04-03T05:57:19.009Z,58.00
2019-04-03T05:57:50.493Z,58.00
2019-04-03T05:58:21.918Z,58.00
2019-04-03T05:58:56.714Z,58.00
2019-04-03T05:59:26.070Z,58.00
2019-04-03T06:00:00.609Z,58.00
2019-04-03T06:00:30.217Z,58.00
2019-04-03T06:01:05.693Z,58.00
2019-04-03T06:01:34.662Z,58.10
2019-04-03T06:02:14.587Z,58.00
2019-04-03T06:02:38.795Z,58.10
2019-04-03T06:03:10.017Z,58.00
2019-04-03T06:03:45.154Z,58.00
2019-04-03T06:04:14.195Z,58.00
2019-04-03T06:04:45.407Z,58.00
2019-04-03T06:05:19.129Z,58.00
2019-04-03T06:05:49.745Z,58.00
2019-04-03T06:06:21.096Z,57.90
2019-04-03T06:06:52.367Z,58.00
2019-04-03T06:07:23.546Z,57.90
2019-04-03T06:07:54.843Z,57.80
2019-04-03T06:08:26.308Z,57.80
2019-04-03T06:08:57.500Z,57.80
2019-04-03T06:09:28.826Z,57.80
2019-04-03T06:10:00.536Z,57.80
2019-04-03T06:10:33.281Z,57.80
2019-04-03T06:11:08.246Z,57.70
2019-04-03T06:11:39.870Z,57.80
2019-04-03T06:12:13.005Z,57.70
2019-04-03T06:12:45.346Z,57.70
2019-04-03T06:13:17.275Z,57.80
2019-04-03T06:13:48.898Z,57.80
2019-04-03T06:14:22.760Z,57.80
2019-04-03T06:14:53.590Z,57.70
2019-04-03T06:15:25.019Z,57.80
2019-04-03T06:15:56.288Z,57.70
2019-04-03T06:16:27.884Z,57.70
2019-04-03T06:16:59.273Z,57.70
2019-04-03T06:17:30.457Z,57.70
2019-04-03T06:18:01.733Z,57.70
2019-04-03T06:18:32.921Z,57.70
2019-04-03T06:19:06.421Z,57.70
2019-04-03T06:19:39.538Z,57.70
2019-04-03T06:20:11.377Z,57.70
2019-04-03T06:20:43.924Z,57.70
2019-04-03T06:21:15.967Z,57.80
2019-04-03T06:21:47.417Z,58.40
2019-04-03T06:22:21.204Z,57.70
2019-04-03T06:22:51.506Z,57.70
2019-04-03T06:23:22.761Z,57.70
2019-04-03T06:23:54.055Z,57.80
2019-04-03T06:24:25.228Z,57.70
2019-04-03T06:24:57.103Z,57.80
2019-04-03T06:25:30.109Z,57.80
2019-04-03T06:26:02.474Z,57.80
2019-04-03T06:26:35.757Z,57.80
2019-04-03T06:27:10.300Z,57.70
2019-04-03T06:27:43.981Z,58.50
2019-04-03T06:28:14.707Z,57.80
2019-04-03T06:28:47.765Z,57.80
2019-04-03T06:29:19.686Z,57.80
2019-04-03T06:29:54.770Z,57.70
2019-04-03T06:30:25.764Z,57.80
2019-04-03T06:30:57.195Z,57.80
2019-04-03T06:31:28.905Z,57.80
2019-04-03T06:32:00.257Z,57.80
2019-04-03T06:32:31.804Z,57.80
2019-04-03T06:33:02.995Z,57.90
2019-04-03T06:33:36.064Z,57.90
2019-04-03T06:34:08.027Z,57.90
2019-04-03T06:34:42.476Z,57.90
2019-04-03T06:35:13.644Z,57.90
2019-04-03T06:35:46.076Z,57.90
2019-04-03T06:36:18.221Z,57.90
2019-04-03T06:36:50.745Z,58.00
2019-04-03T06:37:22.732Z,57.90
2019-04-03T06:37:54.363Z,57.90
2019-04-03T06:38:25.635Z,58.00
2019-04-03T06:38:57.404Z,58.00
2019-04-03T06:39:31.579Z,58.00
2019-04-03T06:40:02.982Z,58.00
2019-04-03T06:40:35.945Z,58.00
2019-04-03T06:41:08.780Z,57.90
2019-04-03T06:41:42.083Z,57.90
2019-04-03T06:42:14.053Z,57.90
2019-04-03T06:42:45.716Z,57.90
2019-04-03T06:43:17.800Z,57.90
2019-04-03T06:43:50.843Z,57.90
2019-04-03T06:44:23.095Z,58.10
2019-04-03T06:44:54.684Z,57.90
2019-04-03T06:45:26.940Z,57.90
2019-04-03T06:45:58.390Z,57.90
2019-04-03T06:46:29.938Z,57.90
2019-04-03T06:47:01.968Z,57.90
2019-04-03T06:47:33.272Z,57.80
2019-04-03T06:48:05.227Z,57.80
2019-04-03T06:48:37.260Z,57.80